createdAt,value
2018-09-08T00:03:09.995Z,20.40
2018-09-08T00:08:13.600Z,20.40
2018-09-08T00:13:29.790Z,20.30
2018-09-08T00:18:38.705Z,20.30
2018-09-08T00:23:47.591Z,20.30
2018-09-08T00:28:58.198Z,20.30
2018-09-08T00:34:01.841Z,20.20
2018-09-08T00:39:07.499Z,20.00
2018-09-08T00:44:11.529Z,19.90
2018-09-08T00:49:15.172Z,19.90
2018-09-08T00:54:19.087Z,19.90
2018-09-08T00:59:22.904Z,19.90
2018-09-08T01:04:26.534Z,19.70
2018-09-08T01:09:30.672Z,19.60
2018-09-08T01:14:34.258Z,19.60
2018-09-08T01:19:38.418Z,19.40
2018-09-08T01:24:42.072Z,19.40
2018-09-08T01:29:45.898Z,19.30
2018-09-08T01:34:50.081Z,19.30
2018-09-08T01:39:53.900Z,19.20
2018-09-08T01:44:57.488Z,19.10
2018-09-08T01:50:01.193Z,19.20
2018-09-08T01:55:07.368Z,19.20
2018-09-08T02:00:13.089Z,19.10
2018-09-08T02:05:16.733Z,19.00
2018-09-08T02:10:28.316Z,18.90
2018-09-08T02:15:32.048Z,18.90
2018-09-08T02:20:35.809Z,18.80
2018-09-08T02:25:39.553Z,18.70
2018-09-08T02:30:43.239Z,18.60
2018-09-08T02:35:46.880Z,18.50
2018-09-08T02:40:50.587Z,18.40
2018-09-08T02:45:54.291Z,18.50
2018-09-08T02:50:56.715Z,18.50
2018-09-08T02:55:59.129Z,18.40
2018-09-08T03:01:01.585Z,18.30
2018-09-08T03:06:04.675Z,18.20
2018-09-08T03:11:07.592Z,18.20
2018-09-08T03:16:10.428Z,18.20
2018-09-08T03:21:12.855Z,18.20
2018-09-08T03:26:15.390Z,18.20
2018-09-08T03:31:18.048Z,18.20
2018-09-08T03:36:20.472Z,18.20
2018-09-08T03:41:22.992Z,18.20
2018-09-08T03:46:25.701Z,18.00
2018-09-08T03:51:29.663Z,18.00
2018-09-08T03:56:32.563Z,18.00
2018-09-08T04:01:38.649Z,18.00
2018-09-08T04:07:01.391Z,17.90
2018-09-08T04:12:05.029Z,17.80
2018-09-08T04:17:08.633Z,17.70
2018-09-08T04:22:12.861Z,17.70
2018-09-08T04:27:16.505Z,17.70
2018-09-08T04:32:20.179Z,17.60
2018-09-08T04:37:26.163Z,17.60
2018-09-08T04:42:29.745Z,17.60
2018-09-08T04:47:33.333Z,17.60
2018-09-08T04:52:38.809Z,17.60
2018-09-08T04:57:42.605Z,17.60
2018-09-08T05:02:46.251Z,17.60
2018-09-08T05:09:57.733Z,17.50
2018-09-08T05:15:01.501Z,17.50
2018-09-08T05:20:05.703Z,17.20
2018-09-08T05:25:09.404Z,17.20
2018-09-08T05:30:13.396Z,17.20
2018-09-08T05:35:16.975Z,17.30
2018-09-08T05:40:20.587Z,17.30
2018-09-08T05:45:24.175Z,17.30
2018-09-08T05:50:28.160Z,17.30
2018-09-08T05:55:32.232Z,17.20
2018-09-08T06:00:39.950Z,17.20
2018-09-08T06:05:44.370Z,17.20
2018-09-08T06:10:47.919Z,17.10
2018-09-08T06:15:55.804Z,17.10
2018-09-08T06:20:59.548Z,17.20
2018-09-08T06:26:03.667Z,17.40
2018-09-08T06:31:07.511Z,17.70
2018-09-08T06:36:11.097Z,17.80
2018-09-08T06:41:14.884Z,18.00
2018-09-08T06:46:18.540Z,18.20
2018-09-08T06:51:22.979Z,18.50
2018-09-08T06:56:26.874Z,18.70
2018-09-08T07:01:30.508Z,18.90
2018-09-08T07:06:34.264Z,19.00
2018-09-08T07:11:38.236Z,19.10
2018-09-08T07:16:41.976Z,19.30
2018-09-08T07:21:47.601Z,19.40
2018-09-08T07:26:51.511Z,19.50
2018-09-08T07:32:01.877Z,19.60
2018-09-08T07:37:06.168Z,19.60
2018-09-08T07:42:16.673Z,19.90
2018-09-08T07:47:30.347Z,20.10
2018-09-08T07:52:44.956Z,20.30
2018-09-08T07:57:48.785Z,20.40
2018-09-08T08:02:52.420Z,20.50
2018-09-08T08:07:57.874Z,20.60
2018-09-08T08:13:12.523Z,20.70
2018-09-08T08:18:16.343Z,20.90
2018-09-08T08:23:20.049Z,21.20
2018-09-08T08:28:23.605Z,23.50
2018-09-08T08:33:27.554Z,27.60
2018-09-08T08:38:31.363Z,30.00
2018-09-08T08:43:35.822Z,31.40
2018-09-08T08:48:40.278Z,32.00
2018-09-08T08:53:55.771Z,32.90
2018-09-08T08:58:59.786Z,32.70
2018-09-08T09:04:03.420Z,32.00
2018-09-08T09:09:10.665Z,30.40
2018-09-08T09:14:15.032Z,28.30
2018-09-08T09:19:32.019Z,26.90
2018-09-08T09:25:01.456Z,26.10
2018-09-08T09:30:05.319Z,24.90
2018-09-08T09:35:10.581Z,23.60
2018-09-08T09:40:15.652Z,23.40
2018-09-08T09:45:19.324Z,22.90
2018-09-08T09:50:23.317Z,22.90
2018-09-08T09:55:27.692Z,22.90
2018-09-08T10:00:36.542Z,22.80
2018-09-08T10:05:40.365Z,22.40
2018-09-08T10:10:50.846Z,22.60
2018-09-08T10:15:54.571Z,22.60
2018-09-08T10:20:58.297Z,22.90
2018-09-08T10:26:02.458Z,23.30
2018-09-08T10:31:06.102Z,24.00
2018-09-08T10:36:09.722Z,24.40
2018-09-08T10:41:13.535Z,24.50
2018-09-08T10:46:17.489Z,24.80
2018-09-08T10:51:34.625Z,24.80
2018-09-08T10:56:38.980Z,25.10
2018-09-08T11:01:43.633Z,24.90
2018-09-08T11:06:47.679Z,25.00
2018-09-08T11:11:51.336Z,25.10
2018-09-08T11:16:55.719Z,24.90
2018-09-08T11:22:00.351Z,25.00
2018-09-08T11:27:04.127Z,25.00
2018-09-08T11:32:07.896Z,25.20
2018-09-08T11:37:11.579Z,25.30
2018-09-08T11:42:15.235Z,25.20
2018-09-08T11:47:18.912Z,25.60
2018-09-08T11:52:22.539Z,26.00
2018-09-08T11:57:26.427Z,26.40
2018-09-08T12:02:30.993Z,26.10
2018-09-08T12:07:34.736Z,26.20
2018-09-08T12:12:38.379Z,26.60
2018-09-08T12:17:43.201Z,26.30
2018-09-08T12:22:47.029Z,26.30
2018-09-08T12:27:51.278Z,26.70
2018-09-08T12:37:58.144Z,26.70
2018-09-08T12:43:01.832Z,26.70
2018-09-08T12:48:06.420Z,26.80
2018-09-08T12:53:10.594Z,27.90
2018-09-08T12:58:15.451Z,28.10
2018-09-08T13:08:22.588Z,29.10
2018-09-08T13:18:29.521Z,29.60
2018-09-08T13:23:34.139Z,30.40
2018-09-08T13:28:39.370Z,30.30
2018-09-08T13:33:43.696Z,29.40
2018-09-08T13:38:47.321Z,29.00
2018-09-08T13:43:50.975Z,30.00
2018-09-08T13:49:00.870Z,30.40
2018-09-08T13:54:05.209Z,29.70
2018-09-08T13:59:09.403Z,29.50
2018-09-08T14:04:13.286Z,29.50
2018-09-08T14:09:16.972Z,29.00
2018-09-08T14:14:20.634Z,29.00
2018-09-08T14:19:24.276Z,30.10
2018-09-08T14:24:28.700Z,30.90
2018-09-08T14:29:34.127Z,31.50
2018-09-08T14:34:37.935Z,31.50
2018-09-08T14:39:42.002Z,31.50
2018-09-08T14:44:46.431Z,31.40
2018-09-08T14:49:50.053Z,31.80
2018-09-08T14:54:54.009Z,31.80
2018-09-08T14:59:57.864Z,32.40
2018-09-08T15:05:07.796Z,32.40
2018-09-08T15:10:11.399Z,32.60
2018-09-08T15:15:15.244Z,32.70
2018-09-08T15:20:18.842Z,33.10
2018-09-08T15:25:22.448Z,33.30
2018-09-08T15:30:26.590Z,33.20
2018-09-08T15:35:30.247Z,32.90
2018-09-08T15:40:35.717Z,32.90
2018-09-08T15:45:39.556Z,32.20
2018-09-08T15:50:43.187Z,32.20
2018-09-08T15:55:46.876Z,31.60
2018-09-08T16:00:50.982Z,30.70
2018-09-08T16:05:54.660Z,30.90
2018-09-08T16:11:01.007Z,31.10
2018-09-08T16:16:04.665Z,31.80
2018-09-08T16:21:09.042Z,32.50
2018-09-08T16:26:13.233Z,32.70
2018-09-08T16:31:16.875Z,32.70
2018-09-08T16:36:20.515Z,32.50
2018-09-08T16:41:24.100Z,32.40
2018-09-08T16:46:27.826Z,31.90
2018-09-08T16:51:31.669Z,31.10
2018-09-08T16:56:40.408Z,30.90
2018-09-08T17:01:44.050Z,30.50
2018-09-08T17:06:47.793Z,29.50
2018-09-08T17:11:55.389Z,29.50
2018-09-08T17:17:00.292Z,28.80
2018-09-08T17:22:03.993Z,28.80
2018-09-08T17:27:09.987Z,28.90
2018-09-08T17:32:13.733Z,28.50
2018-09-08T17:37:17.818Z,28.20
2018-09-08T17:42:21.555Z,27.80
2018-09-08T17:47:25.270Z,27.30
2018-09-08T17:52:29.562Z,26.90
2018-09-08T17:57:33.315Z,26.60
2018-09-08T18:02:37.072Z,26.20
2018-09-08T18:07:42.620Z,26.00
2018-09-08T18:12:46.332Z,25.70
2018-09-08T18:17:50.429Z,25.40
2018-09-08T18:22:55.215Z,25.00
2018-09-08T18:27:59.132Z,25.00
2018-09-08T18:33:02.991Z,24.70
2018-09-08T18:38:06.629Z,24.40
2018-09-08T18:43:10.220Z,24.10
2018-09-08T18:48:13.914Z,23.70
2018-09-08T18:53:18.564Z,23.40
2018-09-08T18:58:22.231Z,23.20
2018-09-08T19:03:26.204Z,23.00
2018-09-08T19:08:49.177Z,22.80
2018-09-08T19:13:53.062Z,22.60
2018-09-08T19:18:57.603Z,22.40
2018-09-08T19:24:07.415Z,22.20
2018-09-08T19:29:16.395Z,21.90
2018-09-08T19:34:20.266Z,21.70
2018-09-08T19:39:24.109Z,21.40
2018-09-08T19:44:27.849Z,21.30
2018-09-08T19:49:31.479Z,21.10
2018-09-08T19:54:35.225Z,21.00
2018-09-08T19:59:38.850Z,20.80
2018-09-08T20:04:43.598Z,20.70
2018-09-08T20:09:47.247Z,20.60
2018-09-08T20:14:51.393Z,20.40
2018-09-08T20:19:55.117Z,20.20
2018-09-08T20:24:58.647Z,20.10
2018-09-08T20:30:02.308Z,20.00
2018-09-08T20:35:06.573Z,19.90
2018-09-08T20:40:10.120Z,19.90
2018-09-08T20:45:13.945Z,19.80
2018-09-08T20:50:18.562Z,19.60
2018-09-08T20:55:23.061Z,19.50
2018-09-08T21:00:26.683Z,19.50
2018-09-08T21:05:31.322Z,19.40
2018-09-08T21:10:35.234Z,19.20
2018-09-08T21:15:38.806Z,19.20
2018-09-08T21:20:42.430Z,19.00
2018-09-08T21:25:46.330Z,18.90
2018-09-08T21:30:50.128Z,18.80
2018-09-08T21:35:55.611Z,18.70
2018-09-08T21:40:59.563Z,18.60
2018-09-08T21:46:03.156Z,18.60
2018-09-08T21:51:08.398Z,18.60
2018-09-08T21:56:12.260Z,18.50
2018-09-08T22:01:21.709Z,18.40
2018-09-08T22:06:26.917Z,18.30
2018-09-08T22:11:36.544Z,18.20
2018-09-08T22:16:40.905Z,18.10
2018-09-08T22:21:46.383Z,18.10
2018-09-08T22:26:50.306Z,18.00
2018-09-08T22:31:53.948Z,17.90
2018-09-08T22:36:57.702Z,17.80
2018-09-08T22:42:01.929Z,17.80
2018-09-08T22:47:05.519Z,17.80
2018-09-08T22:52:09.130Z,17.70
2018-09-08T22:57:13.169Z,17.60
2018-09-08T23:02:16.803Z,17.50
2018-09-08T23:07:20.958Z,17.40
2018-09-08T23:12:24.839Z,17.30
2018-09-08T23:17:28.526Z,17.20
2018-09-08T23:22:32.123Z,17.20
2018-09-08T23:27:35.737Z,17.30
2018-09-08T23:32:39.543Z,17.20
2018-09-08T23:37:43.163Z,17.10
2018-09-08T23:47:57.165Z,16.90
2018-09-08T23:53:00.762Z,16.80
2018-09-08T23:58:04.360Z,16.70
